createdAt,value
2023-05-02T00:00:08.919Z,11.70
2023-05-02T00:02:37.300Z,11.70
2023-05-02T00:05:06.613Z,11.70
2023-05-02T00:07:36.933Z,11.70
2023-05-02T00:10:06.100Z,11.60
2023-05-02T00:12:34.568Z,11.60
2023-05-02T00:15:02.547Z,11.50
2023-05-02T00:17:30.612Z,11.50
2023-05-02T00:19:58.783Z,11.40
2023-05-02T00:22:27.307Z,11.40
2023-05-02T00:24:58.716Z,11.40
2023-05-02T00:27:26.697Z,11.40
2023-05-02T00:29:55.098Z,11.30
2023-05-02T00:32:23.289Z,11.30
2023-05-02T00:34:51.352Z,11.30
2023-05-02T00:37:19.349Z,11.30
2023-05-02T00:39:47.354Z,11.30
2023-05-02T00:42:16.751Z,11.20
2023-05-02T00:44:44.749Z,11.30
2023-05-02T00:47:12.914Z,11.30
2023-05-02T00:49:40.942Z,11.20
2023-05-02T00:52:09.387Z,11.20
2023-05-02T00:54:38.265Z,11.20
2023-05-02T00:57:06.744Z,11.10
2023-05-02T00:59:36.865Z,11.10
2023-05-02T01:02:11.890Z,11.10
2023-05-02T01:04:43.866Z,11.10
2023-05-02T01:07:20.676Z,11.10
2023-05-02T01:09:53.520Z,11.00
2023-05-02T01:12:28.325Z,11.10
2023-05-02T01:14:58.414Z,11.00
2023-05-02T01:17:29.900Z,11.00
2023-05-02T01:19:59.331Z,11.00
2023-05-02T01:22:29.143Z,11.00
2023-05-02T01:25:01.677Z,11.00
2023-05-02T01:27:35.592Z,10.90
2023-05-02T01:30:06.018Z,10.90
2023-05-02T01:32:34.394Z,10.90
2023-05-02T01:35:02.738Z,10.80
2023-05-02T01:37:31.900Z,10.70
2023-05-02T01:40:00.337Z,10.60
2023-05-02T01:42:28.930Z,10.60
2023-05-02T01:44:57.496Z,10.50
2023-05-02T01:47:41.543Z,10.40
2023-05-02T01:50:10.389Z,10.30
2023-05-02T01:52:39.533Z,10.20
2023-05-02T01:55:09.802Z,10.10
2023-05-02T01:57:38.514Z,9.10
2023-05-02T02:00:08.480Z,9.80
2023-05-02T02:02:38.308Z,9.70
2023-05-02T02:05:07.126Z,9.60
2023-05-02T02:07:35.200Z,9.60
2023-05-02T02:10:03.195Z,9.60
2023-05-02T02:12:33.307Z,9.50
2023-05-02T02:15:04.133Z,9.40
2023-05-02T02:17:37.817Z,9.30
2023-05-02T02:20:09.558Z,9.30
2023-05-02T02:22:39.026Z,9.30
2023-05-02T02:25:07.967Z,9.30
2023-05-02T02:27:36.018Z,9.30
2023-05-02T02:30:04.702Z,9.30
2023-05-02T02:32:32.931Z,9.30
2023-05-02T02:35:01.081Z,9.30
2023-05-02T02:37:32.175Z,9.30
2023-05-02T02:40:03.726Z,9.20
2023-05-02T02:42:39.417Z,9.20
2023-05-02T02:45:11.857Z,9.20
2023-05-02T02:47:43.329Z,9.10
2023-05-02T02:50:15.874Z,9.20
2023-05-02T02:52:49.985Z,9.10
2023-05-02T02:55:21.369Z,9.00
2023-05-02T02:57:52.650Z,9.00
2023-05-02T03:00:22.218Z,9.00
2023-05-02T03:02:50.854Z,9.00
2023-05-02T03:05:19.029Z,8.90
2023-05-02T03:07:48.538Z,8.80
2023-05-02T03:10:16.483Z,8.70
2023-05-02T03:12:44.661Z,8.70
2023-05-02T03:15:24.157Z,8.60
2023-05-02T03:17:52.217Z,8.50
2023-05-02T03:20:20.266Z,8.50
2023-05-02T03:22:49.612Z,8.50
2023-05-02T03:25:17.583Z,8.50
2023-05-02T03:27:45.586Z,8.50
2023-05-02T03:30:13.711Z,8.40
2023-05-02T03:32:41.725Z,8.40
2023-05-02T03:35:09.845Z,8.40
2023-05-02T03:37:37.792Z,8.40
2023-05-02T03:40:08.094Z,8.40
2023-05-02T03:42:39.885Z,8.40
2023-05-02T03:45:08.572Z,8.30
2023-05-02T03:47:36.580Z,8.30
2023-05-02T03:50:04.745Z,8.30
2023-05-02T03:52:32.694Z,8.30
2023-05-02T03:55:01.694Z,8.30
2023-05-02T03:57:32.271Z,8.20
2023-05-02T04:00:00.648Z,8.20
2023-05-02T04:02:29.108Z,8.10
2023-05-02T04:04:57.193Z,8.10
2023-05-02T04:07:25.912Z,8.10
2023-05-02T04:09:54.034Z,8.10
2023-05-02T04:12:22.265Z,8.20
2023-05-02T04:14:51.591Z,8.10
2023-05-02T04:17:19.617Z,8.10
2023-05-02T04:19:47.650Z,8.10
2023-05-02T04:22:15.654Z,8.00
2023-05-02T04:24:43.654Z,8.00
2023-05-02T04:27:13.729Z,8.00
2023-05-02T04:29:43.065Z,8.00
2023-05-02T04:32:12.830Z,8.00
2023-05-02T04:34:40.808Z,8.00
2023-05-02T04:37:08.764Z,8.00
2023-05-02T04:39:36.728Z,8.00
2023-05-02T04:42:04.702Z,8.00
2023-05-02T04:44:32.669Z,8.00
2023-05-02T04:47:00.628Z,7.90
2023-05-02T04:49:30.387Z,7.90
2023-05-02T04:51:58.672Z,7.90
2023-05-02T04:54:27.926Z,10.90
2023-05-02T04:56:55.918Z,8.00
2023-05-02T04:59:24.100Z,8.00
2023-05-02T05:01:52.150Z,8.00
2023-05-02T05:04:20.464Z,8.00
2023-05-02T05:06:50.089Z,8.00
2023-05-02T05:09:18.035Z,7.90
2023-05-02T05:11:46.468Z,7.90
2023-05-02T05:14:14.431Z,7.80
2023-05-02T05:16:42.519Z,7.80
2023-05-02T05:19:10.608Z,7.80
2023-05-02T05:21:38.586Z,7.80
2023-05-02T05:24:08.924Z,7.80
2023-05-02T05:26:36.885Z,7.70
2023-05-02T05:29:04.877Z,7.80
2023-05-02T05:31:32.921Z,7.70
2023-05-02T05:34:01.332Z,7.50
2023-05-02T05:36:29.482Z,7.50
2023-05-02T05:38:57.448Z,7.50
2023-05-02T05:41:26.867Z,7.50
2023-05-02T05:43:56.279Z,7.50
2023-05-02T05:46:24.400Z,7.50
2023-05-02T05:48:52.392Z,7.50
2023-05-02T05:51:20.362Z,7.50
2023-05-02T05:53:48.391Z,7.50
2023-05-02T05:56:16.400Z,7.40
2023-05-02T05:58:45.819Z,7.40
2023-05-02T06:01:13.809Z,7.30
2023-05-02T06:03:41.953Z,7.40
2023-05-02T06:06:09.979Z,7.40
2023-05-02T06:08:37.989Z,7.40
2023-05-02T06:11:09.359Z,7.40
2023-05-02T06:13:37.344Z,7.40
2023-05-02T06:16:07.235Z,7.40
2023-05-02T06:18:35.409Z,7.40
2023-05-02T06:21:06.287Z,7.40
2023-05-02T06:23:34.619Z,7.50
2023-05-02T06:26:02.988Z,7.60
2023-05-02T06:28:31.380Z,7.50
2023-05-02T06:30:59.938Z,7.60
2023-05-02T06:33:29.502Z,7.50
2023-05-02T06:35:59.218Z,7.50
2023-05-02T06:38:28.780Z,7.50
2023-05-02T06:40:56.752Z,7.50
2023-05-02T06:43:24.731Z,7.60
2023-05-02T06:45:53.882Z,7.50
2023-05-02T06:48:22.369Z,7.50
2023-05-02T06:50:52.847Z,7.60
2023-05-02T06:53:20.836Z,7.60
2023-05-02T06:55:49.626Z,7.70
2023-05-02T06:58:17.636Z,7.70
2023-05-02T07:00:45.694Z,7.70
2023-05-02T07:03:13.858Z,7.80
2023-05-02T07:05:42.024Z,7.80
2023-05-02T07:08:11.581Z,7.90
2023-05-02T07:10:39.575Z,7.80
2023-05-02T07:13:07.624Z,7.80
2023-05-02T07:15:35.652Z,7.80
2023-05-02T07:18:03.732Z,7.80
2023-05-02T07:20:32.363Z,7.90
2023-05-02T07:23:00.379Z,7.80
2023-05-02T07:25:32.836Z,7.90
2023-05-02T07:28:00.827Z,7.90
2023-05-02T07:30:28.775Z,7.90
2023-05-02T07:32:56.799Z,8.00
2023-05-02T07:35:24.867Z,8.10
2023-05-02T07:37:52.945Z,8.10
2023-05-02T07:40:21.154Z,8.10
2023-05-02T07:42:51.201Z,8.20
2023-05-02T07:45:19.283Z,8.30
2023-05-02T07:47:47.552Z,8.30
2023-05-02T07:50:15.538Z,8.50
2023-05-02T07:52:43.616Z,8.70
2023-05-02T07:55:12.129Z,8.80
2023-05-02T07:57:40.152Z,8.70
2023-05-02T08:00:10.350Z,8.70
2023-05-02T08:02:38.495Z,8.80
2023-05-02T08:05:07.621Z,8.80
2023-05-02T08:07:37.281Z,8.80
2023-05-02T08:10:05.782Z,8.80
2023-05-02T08:12:33.796Z,8.90
2023-05-02T08:15:05.400Z,8.90
2023-05-02T08:17:34.775Z,8.80
2023-05-02T08:20:03.031Z,8.90
2023-05-02T08:22:31.942Z,8.80
2023-05-02T08:24:59.955Z,9.10
2023-05-02T08:27:28.021Z,9.10
2023-05-02T08:29:57.412Z,9.00
2023-05-02T08:32:26.941Z,9.00
2023-05-02T08:34:57.626Z,8.90
2023-05-02T08:37:25.829Z,8.80
2023-05-02T08:39:53.791Z,8.80
2023-05-02T08:42:24.935Z,8.80
2023-05-02T08:44:52.922Z,8.90
2023-05-02T08:47:21.696Z,8.60
2023-05-02T08:49:50.407Z,8.90
2023-05-02T08:52:20.545Z,8.90
2023-05-02T08:54:49.316Z,8.90
2023-05-02T08:57:17.303Z,8.90
2023-05-02T08:59:45.321Z,9.00
2023-05-02T09:02:18.991Z,9.10
2023-05-02T09:04:49.556Z,9.30
2023-05-02T09:07:18.924Z,9.30
2023-05-02T09:09:47.216Z,9.30
2023-05-02T09:12:16.321Z,9.40
2023-05-02T09:14:44.549Z,9.40
2023-05-02T09:17:12.664Z,9.30
2023-05-02T09:19:40.680Z,9.40
2023-05-02T09:22:08.586Z,9.50
2023-05-02T09:24:39.214Z,9.50
2023-05-02T09:27:07.178Z,9.50
2023-05-02T09:29:38.068Z,9.60
2023-05-02T09:32:06.621Z,9.60
2023-05-02T09:34:34.832Z,9.50
2023-05-02T09:37:05.462Z,9.40
2023-05-02T09:39:33.456Z,9.30
2023-05-02T09:42:03.543Z,9.40
2023-05-02T09:44:37.689Z,9.40
2023-05-02T09:47:06.828Z,9.60
2023-05-02T09:49:42.127Z,9.80
2023-05-02T09:52:13.481Z,10.10
2023-05-02T09:54:41.793Z,10.10
2023-05-02T09:57:11.566Z,10.10
2023-05-02T09:59:40.108Z,10.10
2023-05-02T10:02:10.403Z,10.00
2023-05-02T10:04:39.964Z,10.00
2023-05-02T10:07:10.426Z,10.00
2023-05-02T10:09:41.643Z,10.10
2023-05-02T10:12:11.218Z,10.20
2023-05-02T10:14:41.327Z,10.10
2023-05-02T10:17:13.189Z,10.00
2023-05-02T10:19:43.322Z,10.00
2023-05-02T10:22:11.613Z,9.90
2023-05-02T10:24:39.868Z,10.00
2023-05-02T10:27:08.082Z,10.40
2023-05-02T10:29:38.315Z,10.50
2023-05-02T10:32:07.819Z,10.50
2023-05-02T10:34:36.650Z,10.40
2023-05-02T10:37:04.646Z,10.40
2023-05-02T10:39:33.152Z,10.20
2023-05-02T10:42:02.758Z,10.20
2023-05-02T10:44:34.802Z,10.10
2023-05-02T10:47:18.835Z,10.10
2023-05-02T10:49:53.491Z,10.00
2023-05-02T10:52:28.664Z,10.00
2023-05-02T10:55:16.013Z,10.00
2023-05-02T10:58:03.341Z,10.10
2023-05-02T11:00:32.467Z,10.10
2023-05-02T11:03:02.537Z,10.00
2023-05-02T11:05:30.954Z,9.90
2023-05-02T11:08:19.419Z,9.90
2023-05-02T11:10:48.328Z,9.90
2023-05-02T11:13:16.472Z,9.90
2023-05-02T11:15:57.994Z,9.90
2023-05-02T11:18:27.410Z,10.00
2023-05-02T11:21:16.517Z,10.10
2023-05-02T11:23:46.817Z,10.10
2023-05-02T11:26:23.083Z,10.30
2023-05-02T11:28:51.069Z,10.40
2023-05-02T11:31:52.476Z,10.40
2023-05-02T11:34:20.629Z,10.50
2023-05-02T11:36:48.595Z,10.50
2023-05-02T11:39:26.826Z,10.50
2023-05-02T11:41:55.038Z,10.50
2023-05-02T11:44:23.421Z,10.50
2023-05-02T11:46:51.434Z,10.50
2023-05-02T11:49:19.462Z,10.50
2023-05-02T11:51:47.528Z,10.50
2023-05-02T11:54:21.908Z,10.50
2023-05-02T11:56:51.286Z,10.60
2023-05-02T11:59:19.288Z,10.70
2023-05-02T12:01:50.581Z,10.80
2023-05-02T12:04:22.055Z,10.80
2023-05-02T12:06:56.513Z,10.80
2023-05-02T12:09:24.503Z,10.80
2023-05-02T12:11:57.036Z,10.70
2023-05-02T12:14:28.698Z,10.70
2023-05-02T12:16:56.783Z,10.70
2023-05-02T12:19:25.240Z,10.60
2023-05-02T12:21:53.877Z,10.40
2023-05-02T12:24:22.128Z,10.40
2023-05-02T12:26:51.257Z,10.30
2023-05-02T12:29:21.750Z,10.30
2023-05-02T12:31:52.868Z,10.30
2023-05-02T12:34:40.384Z,10.30
2023-05-02T12:37:08.912Z,10.40
2023-05-02T12:39:37.160Z,10.60
2023-05-02T12:42:11.926Z,10.70
2023-05-02T12:44:42.102Z,11.00
2023-05-02T12:47:11.069Z,11.10
2023-05-02T12:50:00.044Z,11.10
2023-05-02T12:52:43.027Z,11.10
2023-05-02T12:55:17.459Z,11.20
2023-05-02T12:57:45.541Z,11.10
2023-05-02T13:00:17.177Z,11.10
2023-05-02T13:02:47.174Z,11.00
2023-05-02T13:05:15.826Z,10.90
2023-05-02T13:07:43.803Z,10.80
2023-05-02T13:10:12.275Z,10.70
2023-05-02T13:12:40.437Z,10.60
2023-05-02T13:15:09.284Z,10.70
2023-05-02T13:17:38.990Z,10.50
2023-05-02T13:20:08.372Z,10.40
2023-05-02T13:22:37.183Z,10.40
2023-05-02T13:25:06.455Z,10.40
2023-05-02T13:27:34.591Z,10.40
2023-05-02T13:30:05.002Z,10.40
2023-05-02T13:32:35.920Z,10.40
2023-05-02T13:35:05.670Z,10.50
2023-05-02T13:37:33.782Z,10.50
2023-05-02T13:40:02.248Z,10.60
2023-05-02T13:42:30.793Z,10.50
2023-05-02T13:44:58.844Z,10.60
2023-05-02T13:47:26.897Z,10.50
2023-05-02T13:49:55.520Z,10.40
2023-05-02T13:52:25.012Z,10.40
2023-05-02T13:54:52.977Z,10.40
2023-05-02T13:57:20.976Z,10.50
2023-05-02T13:59:48.934Z,10.70
2023-05-02T14:02:16.999Z,11.10
2023-05-02T14:04:44.993Z,11.60
2023-05-02T14:07:13.046Z,11.70
2023-05-02T14:09:42.351Z,11.60
2023-05-02T14:12:10.429Z,11.50
2023-05-02T14:14:38.409Z,11.30
2023-05-02T14:17:06.436Z,11.10
2023-05-02T14:19:34.409Z,10.90
2023-05-02T14:22:02.556Z,10.70
2023-05-02T14:24:30.579Z,10.60
2023-05-02T14:27:00.163Z,10.50
2023-05-02T14:29:28.123Z,10.40
2023-05-02T14:31:56.123Z,10.40
2023-05-02T14:34:26.867Z,10.60
2023-05-02T14:36:54.891Z,10.70
2023-05-02T14:39:22.880Z,10.80
2023-05-02T14:41:51.093Z,10.90
2023-05-02T14:44:20.578Z,10.90
2023-05-02T14:46:55.072Z,10.90
2023-05-02T14:49:24.537Z,10.80
2023-05-02T14:51:52.805Z,11.00
2023-05-02T14:54:22.803Z,10.90
2023-05-02T14:56:52.748Z,10.90
2023-05-02T14:59:22.271Z,11.30
2023-05-02T15:01:52.796Z,11.40
2023-05-02T15:04:20.962Z,11.30
2023-05-02T15:06:49.312Z,11.30
2023-05-02T15:09:17.943Z,11.20
2023-05-02T15:11:45.971Z,11.10
2023-05-02T15:14:14.343Z,11.10
2023-05-02T15:16:43.744Z,11.10
2023-05-02T15:19:11.792Z,11.10
2023-05-02T15:21:39.819Z,11.10
2023-05-02T15:24:07.895Z,11.90
2023-05-02T15:26:35.843Z,11.20
2023-05-02T15:29:03.847Z,11.30
2023-05-02T15:31:31.843Z,11.40
2023-05-02T15:34:01.456Z,11.70
2023-05-02T15:36:30.038Z,12.00
2023-05-02T15:38:58.200Z,12.10
2023-05-02T15:41:27.004Z,12.00
2023-05-02T15:43:55.064Z,11.70
2023-05-02T15:46:23.102Z,11.40
2023-05-02T15:48:51.252Z,11.00
2023-05-02T15:51:20.626Z,10.90
2023-05-02T15:53:52.233Z,10.80
2023-05-02T15:56:21.267Z,10.70
2023-05-02T15:58:49.405Z,10.90
2023-05-02T16:01:17.439Z,11.00
2023-05-02T16:03:45.556Z,10.90
2023-05-02T16:06:13.744Z,10.90
2023-05-02T16:08:43.064Z,10.80
2023-05-02T16:11:11.123Z,10.80
2023-05-02T16:13:39.042Z,10.80
2023-05-02T16:16:07.755Z,10.70
2023-05-02T16:18:35.822Z,10.60
2023-05-02T16:21:05.432Z,10.70
2023-05-02T16:23:33.441Z,10.60
2023-05-02T16:26:02.913Z,10.60
2023-05-02T16:28:30.955Z,10.80
2023-05-02T16:30:58.912Z,11.00
2023-05-02T16:33:26.886Z,11.60
2023-05-02T16:36:01.238Z,12.20
2023-05-02T16:38:29.246Z,12.70
2023-05-02T16:40:57.588Z,12.90
2023-05-02T16:43:27.042Z,13.00
2023-05-02T16:46:02.179Z,13.00
2023-05-02T16:48:30.311Z,13.10
2023-05-02T16:50:58.297Z,13.10
2023-05-02T16:53:26.676Z,12.90
2023-05-02T16:55:54.891Z,12.80
2023-05-02T16:58:22.860Z,12.70
2023-05-02T17:00:52.281Z,12.70
2023-05-02T17:03:20.457Z,12.30
2023-05-02T17:05:48.469Z,12.10
2023-05-02T17:08:16.951Z,12.00
2023-05-02T17:10:48.917Z,11.90
2023-05-02T17:13:17.018Z,11.70
2023-05-02T17:15:45.115Z,11.50
2023-05-02T17:18:14.466Z,11.40
2023-05-02T17:20:42.485Z,11.30
2023-05-02T17:23:10.542Z,11.20
2023-05-02T17:25:38.774Z,11.10
2023-05-02T17:28:07.376Z,11.10
2023-05-02T17:30:35.642Z,11.00
2023-05-02T17:33:03.748Z,11.00
2023-05-02T17:35:33.200Z,11.00
2023-05-02T17:38:01.176Z,11.00
2023-05-02T17:40:29.832Z,11.00
2023-05-02T17:42:59.242Z,10.90
2023-05-02T17:45:28.619Z,10.90
2023-05-02T17:47:56.686Z,10.80
2023-05-02T17:50:24.761Z,10.70
2023-05-02T17:52:54.402Z,10.70
2023-05-02T17:55:22.394Z,10.50
2023-05-02T17:57:50.524Z,10.50
2023-05-02T18:00:18.813Z,10.40
2023-05-02T18:02:46.918Z,10.40
2023-05-02T18:05:14.941Z,10.40
2023-05-02T18:07:42.947Z,10.30
2023-05-02T18:10:12.601Z,10.30
2023-05-02T18:12:40.583Z,10.40
2023-05-02T18:15:09.146Z,10.40
2023-05-02T18:17:38.115Z,10.40
2023-05-02T18:20:07.254Z,10.30
2023-05-02T18:22:35.597Z,10.20
2023-05-02T18:25:03.984Z,10.20
2023-05-02T18:27:33.706Z,10.10
2023-05-02T18:30:01.887Z,10.00
2023-05-02T18:32:31.481Z,10.00
2023-05-02T18:34:59.734Z,9.80
2023-05-02T18:37:31.533Z,9.70
2023-05-02T18:39:59.629Z,9.60
2023-05-02T18:42:27.665Z,9.50
2023-05-02T18:44:57.113Z,9.40
2023-05-02T18:47:26.021Z,9.40
2023-05-02T18:49:56.345Z,9.30
2023-05-02T18:52:25.586Z,9.20
2023-05-02T18:54:53.685Z,9.10
2023-05-02T18:57:21.676Z,9.00
2023-05-02T18:59:49.767Z,9.00
2023-05-02T19:02:19.103Z,8.90
2023-05-02T19:04:47.166Z,8.90
2023-05-02T19:07:15.557Z,8.90
2023-05-02T19:09:43.556Z,8.80
2023-05-02T19:12:11.578Z,8.80
2023-05-02T19:14:41.034Z,8.80
2023-05-02T19:17:09.048Z,8.70
2023-05-02T19:19:38.376Z,8.70
2023-05-02T19:22:06.348Z,8.70
2023-05-02T19:24:34.473Z,8.60
2023-05-02T19:27:02.463Z,8.60
2023-05-02T19:29:30.398Z,8.60
2023-05-02T19:31:58.386Z,8.50
2023-05-02T19:34:27.175Z,8.50
2023-05-02T19:36:56.724Z,8.50
2023-05-02T19:39:24.707Z,8.50
2023-05-02T19:41:52.671Z,8.40
2023-05-02T19:44:21.519Z,8.40
2023-05-02T19:46:49.552Z,8.40
2023-05-02T19:49:17.646Z,8.40
2023-05-02T19:51:45.756Z,8.40
2023-05-02T19:54:15.057Z,8.40
2023-05-02T19:56:43.442Z,8.30
2023-05-02T19:59:14.078Z,8.30
2023-05-02T20:01:42.220Z,8.30
2023-05-02T20:04:10.307Z,8.20
2023-05-02T20:06:38.301Z,8.20
2023-05-02T20:09:06.372Z,8.10
2023-05-02T20:11:35.666Z,8.10
2023-05-02T20:14:03.656Z,8.00
2023-05-02T20:16:31.751Z,8.00
2023-05-02T20:18:59.959Z,8.00
2023-05-02T20:21:27.951Z,8.00
2023-05-02T20:23:56.061Z,7.90
2023-05-02T20:26:24.094Z,7.90
2023-05-02T20:28:53.571Z,7.90
2023-05-02T20:31:21.692Z,7.90
2023-05-02T20:33:49.840Z,7.90
2023-05-02T20:36:18.253Z,7.80
2023-05-02T20:38:48.354Z,7.80
2023-05-02T20:41:17.669Z,7.80
2023-05-02T20:43:46.752Z,7.70
2023-05-02T20:46:17.213Z,7.70
2023-05-02T20:48:45.313Z,7.70
2023-05-02T20:51:13.303Z,7.60
2023-05-02T20:53:41.388Z,7.60
2023-05-02T20:56:09.380Z,7.60
2023-05-02T20:58:37.338Z,7.60
2023-05-02T21:01:05.656Z,7.60
2023-05-02T21:03:39.245Z,7.50
2023-05-02T21:06:07.415Z,7.50
2023-05-02T21:08:35.487Z,7.50
2023-05-02T21:11:03.481Z,7.50
2023-05-02T21:13:31.450Z,7.50
2023-05-02T21:15:59.412Z,7.40
2023-05-02T21:18:27.510Z,7.40
2023-05-02T21:20:56.835Z,7.30
2023-05-02T21:23:26.232Z,7.30
2023-05-02T21:25:55.001Z,7.30
2023-05-02T21:28:22.991Z,7.40
2023-05-02T21:30:50.956Z,7.30
2023-05-02T21:33:18.939Z,7.40
2023-05-02T21:35:46.896Z,7.40
2023-05-02T21:38:16.278Z,7.40
2023-05-02T21:40:44.223Z,7.40
2023-05-02T21:43:12.245Z,7.40
2023-05-02T21:45:44.280Z,7.40
2023-05-02T21:48:12.541Z,7.40
2023-05-02T21:50:40.751Z,7.30
2023-05-02T21:53:08.841Z,7.40
2023-05-02T21:55:39.545Z,7.40
2023-05-02T21:58:07.959Z,7.30
2023-05-02T22:00:36.385Z,7.30
2023-05-02T22:03:07.687Z,7.30
2023-05-02T22:05:37.298Z,7.20
2023-05-02T22:08:07.812Z,7.20
2023-05-02T22:10:36.733Z,7.20
2023-05-02T22:13:06.507Z,7.20
2023-05-02T22:15:34.520Z,7.20
2023-05-02T22:18:04.946Z,7.20
2023-05-02T22:20:33.083Z,7.10
2023-05-02T22:23:01.097Z,7.10
2023-05-02T22:25:29.068Z,7.10
2023-05-02T22:27:57.073Z,7.10
2023-05-02T22:30:26.620Z,7.10
2023-05-02T22:32:54.648Z,7.10
2023-05-02T22:35:22.631Z,7.10
2023-05-02T22:37:50.736Z,7.10
2023-05-02T22:40:18.856Z,7.10
2023-05-02T22:42:46.876Z,7.00
2023-05-02T22:45:14.913Z,7.00
2023-05-02T22:47:44.333Z,7.00
2023-05-02T22:50:13.099Z,7.00
2023-05-02T22:52:41.065Z,7.00
2023-05-02T22:55:10.015Z,7.00
2023-05-02T22:57:38.111Z,7.00
2023-05-02T23:00:07.475Z,7.00
2023-05-02T23:02:35.525Z,7.00
2023-05-02T23:05:05.129Z,7.00
2023-05-02T23:07:33.208Z,7.00
2023-05-02T23:10:01.617Z,7.00
2023-05-02T23:12:29.886Z,7.00
2023-05-02T23:14:58.020Z,7.00
2023-05-02T23:17:26.098Z,7.00
2023-05-02T23:19:54.065Z,7.00
2023-05-02T23:22:23.379Z,7.00
2023-05-02T23:24:51.375Z,7.00
2023-05-02T23:27:19.370Z,7.00
2023-05-02T23:29:49.048Z,7.00
2023-05-02T23:32:17.233Z,7.00
2023-05-02T23:34:45.524Z,6.90
2023-05-02T23:37:14.229Z,6.90
2023-05-02T23:39:43.601Z,6.90
2023-05-02T23:42:11.573Z,6.90
2023-05-02T23:44:40.257Z,6.90
2023-05-02T23:47:08.437Z,7.00
2023-05-02T23:49:36.878Z,7.00
2023-05-02T23:52:05.655Z,7.00
2023-05-02T23:54:34.955Z,7.00
2023-05-02T23:57:04.530Z,7.00
2023-05-02T23:59:32.510Z,6.90
